JST608 YMAV-YSSY
Flight info
| Callsign | JST608 |
|---|---|
| Flight time | N/A |
| Altitude | 39000 |
| Route | AV W190 ML H129 DOSEL Y59 RIVET |
| Aircraft | A20N/M-SDE2E3FGHIRWXY/LB1 |
Departure
| Time | 2026-04-18 08:05 |
|---|---|
| Airport | Melbourne Avalon International Airport (YMAV) |
Arrival
| Time | N/A |
|---|---|
| Airport | Sydney Kingsford Smith International Airport (YSSY) |
| Time | Latitude | Longitude | Altitude | Speed | Heading |
|---|---|---|---|---|---|
| 2026-04-18 07:19 | -38.02717 | 144.47214 | 44 ft | 0 kts | 8° |
| 2026-04-18 07:53 | -38.02710 | 144.47206 | 44 ft | 1 kts | 283° |
| 2026-04-18 07:53 | -38.02718 | 144.47197 | 44 ft | 2 kts | 219° |
| 2026-04-18 07:53 | -38.02731 | 144.47180 | 44 ft | 5 kts | 230° |
| 2026-04-18 07:54 | -38.02744 | 144.47131 | 43 ft | 9 kts | 262° |
| 2026-04-18 07:54 | -38.02739 | 144.47054 | 42 ft | 11 kts | 275° |
| 2026-04-18 07:54 | -38.02738 | 144.47037 | 42 ft | 0 kts | 274° |
| 2026-04-18 08:03 | -38.02737 | 144.47009 | 42 ft | 9 kts | 268° |
| 2026-04-18 08:04 | -38.02800 | 144.46936 | 42 ft | 21 kts | 186° |
| 2026-04-18 08:04 | -38.03099 | 144.46880 | 38 ft | 84 kts | 188° |
| 2026-04-18 08:04 | -38.03807 | 144.46762 | 39 ft | 140 kts | 188° |
| 2026-04-18 08:04 | -38.04755 | 144.46602 | 316 ft | 156 kts | 188° |
| 2026-04-18 08:05 | -38.05756 | 144.46362 | 634 ft | 185 kts | 192° |
| 2026-04-18 08:05 | -38.06892 | 144.45856 | 1163 ft | 205 kts | 204° |
| 2026-04-18 08:05 | -38.08105 | 144.44876 | 1653 ft | 228 kts | 214° |
| 2026-04-18 08:05 | -38.09428 | 144.43547 | 1991 ft | 267 kts | 219° |
| 2026-04-18 08:06 | -38.10892 | 144.41829 | 2098 ft | 303 kts | 224° |
| 2026-04-18 08:06 | -38.12206 | 144.39914 | 2643 ft | 300 kts | 234° |
| 2026-04-18 08:06 | -38.13180 | 144.38032 | 3779 ft | 273 kts | 239° |
| 2026-04-18 08:06 | -38.14016 | 144.36293 | 4813 ft | 252 kts | 240° |
| 2026-04-18 08:07 | -38.14721 | 144.34468 | 4921 ft | 267 kts | 259° |
| 2026-04-18 08:07 | -38.14549 | 144.32373 | 5299 ft | 272 kts | 293° |
| 2026-04-18 08:07 | -38.13503 | 144.30688 | 5535 ft | 284 kts | 318° |
| 2026-04-18 08:07 | -38.12129 | 144.29132 | 5698 ft | 297 kts | 317° |
| 2026-04-18 08:08 | -38.10691 | 144.27570 | 5550 ft | 320 kts | 321° |
| 2026-04-18 08:08 | -38.08943 | 144.26088 | 5047 ft | 352 kts | 330° |
| 2026-04-18 08:08 | -38.06910 | 144.24980 | 4504 ft | 376 kts | 340° |
| 2026-04-18 08:08 | -38.04721 | 144.24765 | 5287 ft | 322 kts | 15° |
| 2026-04-18 08:09 | -38.03198 | 144.25899 | 6201 ft | 266 kts | 51° |
| 2026-04-18 08:09 | -38.02550 | 144.27594 | 6707 ft | 224 kts | 75° |
| 2026-04-18 08:09 | -38.02218 | 144.29269 | 6799 ft | 201 kts | 79° |
| 2026-04-18 08:09 | -38.02048 | 144.30751 | 6466 ft | 182 kts | 84° |
| 2026-04-18 08:10 | -38.01865 | 144.32164 | 5807 ft | 207 kts | 81° |
| 2026-04-18 08:10 | -38.01622 | 144.33885 | 4813 ft | 247 kts | 80° |
| 2026-04-18 08:10 | -38.01380 | 144.35931 | 3591 ft | 281 kts | 83° |
| 2026-04-18 08:10 | -38.01054 | 144.38240 | 2431 ft | 301 kts | 76° |
| 2026-04-18 08:11 | -38.00575 | 144.40468 | 2023 ft | 294 kts | 75° |
| 2026-04-18 08:11 | -37.99921 | 144.42650 | 1888 ft | 278 kts | 62° |
| 2026-04-18 08:11 | -37.99008 | 144.44423 | 1830 ft | 252 kts | 59° |
| 2026-04-18 08:11 | -37.98153 | 144.46022 | 1756 ft | 231 kts | 48° |
| 2026-04-18 08:12 | -37.97061 | 144.47133 | 1667 ft | 210 kts | 36° |
| 2026-04-18 08:12 | -37.96141 | 144.48198 | 1613 ft | 172 kts | 67° |
| 2026-04-18 08:12 | -37.96049 | 144.49326 | 1481 ft | 130 kts | 117° |
| 2026-04-18 08:12 | -37.96667 | 144.49860 | 1408 ft | 129 kts | 180° |
| 2026-04-18 08:13 | -37.97369 | 144.49559 | 2124 ft | 99 kts | 201° |
| 2026-04-18 08:13 | -37.97967 | 144.49226 | 2332 ft | 119 kts | 203° |
| 2026-04-18 08:13 | -37.98623 | 144.48753 | 2708 ft | 103 kts | 227° |
| 2026-04-18 08:13 | -37.99084 | 144.48132 | 2040 ft | 130 kts | 221° |
| 2026-04-18 08:14 | -37.99788 | 144.47612 | 1384 ft | 125 kts | 199° |
| 2026-04-18 08:14 | -38.00520 | 144.47321 | 904 ft | 117 kts | 188° |
| 2026-04-18 08:14 | -38.01259 | 144.47162 | 373 ft | 112 kts | 187° |
| 2026-04-18 08:14 | -38.01967 | 144.47115 | 52 ft | 85 kts | 177° |
| 2026-04-18 08:15 | -38.02432 | 144.47154 | 46 ft | 50 kts | 174° |
| 2026-04-18 08:15 | -38.02626 | 144.47166 | 45 ft | 4 kts | 186° |
| 2026-04-18 08:15 | -38.02627 | 144.47166 | 45 ft | 0 kts | 186° |